Time;durP1;ratioP1;P1;durP2;ratioP2;P2;SDS_P1;SDS_P2;PMS_P1;PMS_P2;Temp;Humidity;BMP_temperature;BMP_pressure;BME280_temperature;BME280_humidity;BME280_pressure;Samples;Min_cycle;Max_cycle;Signal;HPM_P1;HPM_P2
2021/07/22 00:00:07;;;;;;;4.68;1.80;;;10.60;80.00;;;;;;5010505;28;20063;-65
2021/07/22 00:02:33;;;;;;;2.85;1.92;;;10.60;80.10;;;;;;5010577;28;20014;-65
2021/07/22 00:05:00;;;;;;;5.47;2.97;;;10.60;80.50;;;;;;5010543;28;20014;-65
2021/07/22 00:07:26;;;;;;;4.90;1.95;;;10.50;80.70;;;;;;5010874;28;20014;-65
2021/07/22 00:09:53;;;;;;;5.85;2.67;;;10.50;81.30;;;;;;5010625;28;20033;-67
2021/07/22 00:12:19;;;;;;;3.83;2.42;;;10.50;81.00;;;;;;5012536;28;20025;-65
2021/07/22 00:14:46;;;;;;;6.50;2.10;;;10.40;80.70;;;;;;5009303;28;20049;-66
2021/07/22 00:17:12;;;;;;;6.20;1.80;;;10.40;80.70;;;;;;5010811;28;20022;-65
2021/07/22 00:20:18;;;;;;;6.80;2.92;;;10.30;80.90;;;;;;5008003;28;20046;-65
2021/07/22 00:23:24;;;;;;;7.00;2.60;;;10.30;81.50;;;;;;5008519;28;20034;-67
2021/07/22 00:26:30;;;;;;;4.50;2.63;;;10.20;81.60;;;;;;5008629;28;20477;-66
2021/07/22 00:29:36;;;;;;;6.63;2.53;;;10.20;81.80;;;;;;5009004;28;20260;-63
2021/07/22 00:32:42;;;;;;;5.53;2.57;;;10.20;81.60;;;;;;5009197;28;20036;-66
2021/07/22 00:35:49;;;;;;;7.55;2.67;;;10.20;81.70;;;;;;5008132;28;20394;-64
2021/07/22 00:38:55;;;;;;;3.22;2.30;;;10.20;82.10;;;;;;5005624;28;20462;-68
2021/07/22 00:41:41;;;;;;;3.17;2.23;;;10.20;82.30;;;;;;5007597;28;20495;-65
2021/07/22 00:44:07;;;;;;;5.93;1.75;;;10.20;82.40;;;;;;5007007;28;20032;-64
2021/07/22 00:46:34;;;;;;;8.30;2.97;;;10.30;82.50;;;;;;5007992;28;20054;-64
2021/07/22 00:49:00;;;;;;;6.75;2.38;;;10.20;82.30;;;;;;5007746;28;20021;-64
2021/07/22 00:51:27;;;;;;;5.00;2.20;;;10.30;82.30;;;;;;5009203;28;20030;-64
2021/07/22 00:53:53;;;;;;;5.60;1.92;;;10.30;82.70;;;;;;5008778;28;20054;-65
2021/07/22 00:56:20;;;;;;;4.65;2.50;;;10.30;83.50;;;;;;5012050;28;20044;-65
2021/07/22 00:58:46;;;;;;;7.20;2.28;;;10.30;83.00;;;;;;5013029;28;20041;-64
2021/07/22 01:01:13;;;;;;;6.70;3.13;;;10.30;83.60;;;;;;5011887;28;20028;-66
2021/07/22 01:03:39;;;;;;;7.10;1.98;;;10.30;83.50;;;;;;5012659;28;20026;-66
2021/07/22 01:06:06;;;;;;;5.55;2.50;;;10.30;83.60;;;;;;5011622;28;20026;-63
2021/07/22 01:08:32;;;;;;;6.55;2.38;;;10.30;83.70;;;;;;5012347;28;20033;-65
2021/07/22 01:10:59;;;;;;;6.63;3.15;;;10.20;83.50;;;;;;5013042;28;20496;-66
2021/07/22 01:13:25;;;;;;;6.05;2.28;;;10.30;83.40;;;;;;5014902;28;20029;-65
2021/07/22 01:15:52;;;;;;;7.40;2.00;;;10.30;83.50;;;;;;5011932;28;20096;-64
2021/07/22 01:18:18;;;;;;;5.38;2.00;;;10.20;83.50;;;;;;5011481;28;20041;-64
2021/07/22 01:20:45;;;;;;;4.13;2.13;;;10.20;83.60;;;;;;5012780;28;20065;-64
2021/07/22 01:23:11;;;;;;;4.40;1.80;;;10.20;83.60;;;;;;5012612;28;20030;-64
2021/07/22 01:25:38;;;;;;;3.40;1.60;;;10.20;83.50;;;;;;5013115;28;20026;-64
2021/07/22 01:28:04;;;;;;;5.45;1.90;;;10.10;83.20;;;;;;5011557;28;20049;-64
2021/07/22 01:30:31;;;;;;;6.18;1.77;;;10.10;82.70;;;;;;5013681;28;20029;-65
2021/07/22 01:32:57;;;;;;;5.38;1.42;;;10.10;82.40;;;;;;5012425;28;20048;-64
2021/07/22 01:35:24;;;;;;;5.13;2.08;;;10.10;82.50;;;;;;5013104;28;20010;-63
2021/07/22 01:37:50;;;;;;;4.82;1.33;;;10.00;82.40;;;;;;5010811;28;20025;-64
2021/07/22 01:40:18;;;;;;;6.82;2.13;;;10.00;82.20;;;;;;5012058;28;20018;-64
2021/07/22 01:42:45;;;;;;;4.65;1.27;;;10.00;82.10;;;;;;5014589;28;20049;-67
2021/07/22 01:45:12;;;;;;;3.95;1.23;;;9.90;81.80;;;;;;5014785;28;20028;-65
2021/07/22 01:47:39;;;;;;;4.93;1.55;;;9.90;82.10;;;;;;5015273;28;20350;-65
2021/07/22 01:50:06;;;;;;;3.20;2.30;;;9.90;82.00;;;;;;5012873;28;20038;-64
2021/07/22 01:52:32;;;;;;;2.97;1.27;;;9.80;82.00;;;;;;5013858;28;20022;-66
2021/07/22 01:54:59;;;;;;;6.75;1.52;;;9.80;82.40;;;;;;5015336;28;20097;-64
2021/07/22 01:57:25;;;;;;;2.95;1.33;;;9.80;82.70;;;;;;5011675;28;20701;-67
2021/07/22 01:59:53;;;;;;;4.88;2.22;;;9.70;82.80;;;;;;5013515;28;20029;-65
2021/07/22 02:02:19;;;;;;;9.82;2.17;;;9.80;83.00;;;;;;5011419;28;20069;-65
2021/07/22 02:04:46;;;;;;;2.80;1.33;;;9.70;83.30;;;;;;5012324;28;20021;-65
2021/07/22 02:07:12;;;;;;;4.20;1.58;;;9.70;83.00;;;;;;5011550;28;20420;-65
2021/07/22 02:09:39;;;;;;;4.35;1.58;;;9.70;83.10;;;;;;5012576;28;20044;-66
2021/07/22 02:12:05;;;;;;;5.25;1.40;;;9.70;83.20;;;;;;5011958;28;20026;-66
2021/07/22 02:14:32;;;;;;;6.22;1.67;;;9.70;83.20;;;;;;5012792;28;20017;-66
2021/07/22 02:16:58;;;;;;;3.33;1.50;;;9.70;83.20;;;;;;5015187;28;20071;-65
2021/07/22 02:19:25;;;;;;;4.75;1.90;;;9.60;83.10;;;;;;5011368;28;20046;-68
2021/07/22 02:21:51;;;;;;;4.68;1.58;;;9.60;83.30;;;;;;5014516;28;20112;-65
2021/07/22 02:24:18;;;;;;;6.68;1.55;;;9.60;83.70;;;;;;5012820;28;20430;-65
2021/07/22 02:26:44;;;;;;;4.68;1.88;;;9.60;83.50;;;;;;5012022;28;20381;-65
2021/07/22 02:29:11;;;;;;;7.18;1.80;;;9.60;83.40;;;;;;5011567;28;20032;-65
2021/07/22 02:31:37;;;;;;;2.80;1.55;;;9.60;83.30;;;;;;5011350;28;20034;-66
2021/07/22 02:34:04;;;;;;;5.18;2.08;;;9.60;83.40;;;;;;5012064;28;20022;-66
2021/07/22 02:36:32;;;;;;;9.15;1.88;;;9.50;83.30;;;;;;5011015;28;20036;-66
2021/07/22 02:38:59;;;;;;;8.57;2.58;;;9.50;83.40;;;;;;5012106;28;20033;-65
2021/07/22 02:41:29;;;;;;;8.43;3.17;;;9.50;83.50;;;;;;5010585;28;20069;-66
2021/07/22 02:43:57;;;;;;;11.05;1.95;;;9.50;83.70;;;;;;5011898;28;20025;-66
2021/07/22 02:46:23;;;;;;;3.63;2.00;;;9.50;83.70;;;;;;5013132;28;20037;-66
2021/07/22 02:49:29;;;;;;;6.18;1.38;;;9.50;83.80;;;;;;5011095;28;20080;-65
2021/07/22 02:52:35;;;;;;;3.43;1.63;;;9.50;83.90;;;;;;5009320;28;20041;-67
2021/07/22 02:55:41;;;;;;;5.23;1.73;;;9.50;84.20;;;;;;5011442;28;20026;-64
2021/07/22 02:58:47;;;;;;;4.27;1.47;;;9.50;85.40;;;;;;5009926;28;20302;-66
2021/07/22 03:01:53;;;;;;;5.73;1.53;;;9.50;84.50;;;;;;5011744;28;20053;-66
2021/07/22 03:05:00;;;;;;;2.90;1.10;;;9.50;84.40;;;;;;5011038;28;20026;-67
2021/07/22 03:08:06;;;;;;;8.65;2.08;;;9.50;84.60;;;;;;5011673;28;20045;-65
2021/07/22 03:11:12;;;;;;;2.67;2.20;;;9.50;84.30;;;;;;5010121;28;20034;-67
2021/07/22 03:14:18;;;;;;;6.20;1.73;;;9.60;84.50;;;;;;5012481;28;20270;-66
2021/07/22 03:17:24;;;;;;;4.97;1.37;;;9.60;85.50;;;;;;5012944;28;20097;-65
2021/07/22 03:20:31;;;;;;;7.72;1.55;;;9.60;84.70;;;;;;5009088;28;20033;-66
2021/07/22 03:23:38;;;;;;;8.02;1.60;;;9.60;84.60;;;;;;5010901;28;20029;-67
2021/07/22 03:26:44;;;;;;;2.47;0.80;;;9.60;84.40;;;;;;5011746;28;20025;-67
2021/07/22 03:29:50;;;;;;;2.27;1.37;;;9.60;84.10;;;;;;5009445;28;20061;-66
2021/07/22 03:32:56;;;;;;;5.47;1.77;;;9.60;84.00;;;;;;5009656;28;20026;-66
2021/07/22 03:36:02;;;;;;;5.60;1.40;;;9.60;83.90;;;;;;5010870;28;20018;-66
2021/07/22 03:38:29;;;;;;;8.68;2.80;;;9.60;84.20;;;;;;5010391;28;20059;-67
2021/07/22 03:40:55;;;;;;;4.65;1.48;;;9.60;84.50;;;;;;5009523;28;20014;-64
2021/07/22 03:43:22;;;;;;;5.07;1.50;;;9.70;84.50;;;;;;5009843;28;20022;-65
2021/07/22 03:45:55;;;;;;;4.93;1.67;;;9.60;84.60;;;;;;5011518;28;20466;-66
2021/07/22 03:48:22;;;;;;;5.40;1.70;;;9.60;84.70;;;;;;5010866;28;20026;-64
2021/07/22 03:50:51;;;;;;;5.43;2.00;;;9.60;85.10;;;;;;5009585;28;20449;-65
2021/07/22 03:53:58;;;;;;;5.82;1.33;;;9.70;85.50;;;;;;5003751;28;20310;-66
2021/07/22 03:56:25;;;;;;;3.17;1.37;;;9.60;85.30;;;;;;5008222;28;20022;-66
2021/07/22 03:58:54;;;;;;;8.95;2.95;;;9.60;85.70;;;;;;5006649;28;20671;-65
2021/07/22 04:01:21;;;;;;;4.20;1.33;;;9.60;86.00;;;;;;5009996;28;20061;-65
2021/07/22 04:03:47;;;;;;;3.67;0.90;;;9.70;86.40;;;;;;5008383;28;20022;-64
2021/07/22 04:06:14;;;;;;;3.20;1.70;;;9.70;86.30;;;;;;5010154;28;20461;-64
2021/07/22 04:08:40;;;;;;;5.85;2.28;;;9.70;86.20;;;;;;5008059;28;20013;-66
2021/07/22 04:11:07;;;;;;;34.50;21.58;;;9.70;85.90;;;;;;5008896;28;20084;-66
2021/07/22 04:13:33;;;;;;;50.10;31.73;;;9.80;85.90;;;;;;5012546;28;20396;-65
2021/07/22 04:16:03;;;;;;;14.35;5.75;;;9.80;86.00;;;;;;5009072;28;20385;-66
2021/07/22 04:18:30;;;;;;;9.88;2.67;;;9.80;85.90;;;;;;5011575;28;20079;-69
2021/07/22 04:20:57;;;;;;;2.85;1.55;;;9.80;85.30;;;;;;5009046;28;20481;-69
2021/07/22 04:23:23;;;;;;;2.78;1.23;;;9.80;85.20;;;;;;5010782;28;20017;-67
2021/07/22 04:25:50;;;;;;;4.57;1.33;;;9.80;85.10;;;;;;5008470;28;20022;-67
2021/07/22 04:28:17;;;;;;;5.68;1.60;;;9.80;85.00;;;;;;5010791;28;20040;-68
2021/07/22 04:30:43;;;;;;;3.80;1.63;;;9.80;85.10;;;;;;5011566;28;20030;-68
2021/07/22 04:33:10;;;;;;;7.82;1.35;;;9.80;85.30;;;;;;5010086;28;20029;-65
2021/07/22 04:35:36;;;;;;;4.50;2.13;;;9.80;85.30;;;;;;5009732;28;20097;-65
2021/07/22 04:38:04;;;;;;;11.93;6.75;;;9.90;85.50;;;;;;5009052;28;20014;-70
2021/07/22 04:40:30;;;;;;;19.25;6.70;;;9.90;85.50;;;;;;5009813;28;20024;-69
2021/07/22 04:43:00;;;;;;;6.05;2.83;;;9.90;85.10;;;;;;5008934;28;20132;-67
2021/07/22 04:45:27;;;;;;;5.80;3.03;;;9.80;85.20;;;;;;5009339;28;20033;-68
2021/07/22 04:47:53;;;;;;;7.45;1.92;;;9.80;85.30;;;;;;5009281;28;20030;-68
2021/07/22 04:50:20;;;;;;;2.70;1.33;;;9.80;85.40;;;;;;5009342;28;20493;-71
2021/07/22 04:52:46;;;;;;;4.25;1.50;;;9.80;85.70;;;;;;5009628;28;20037;-67
2021/07/22 04:55:13;;;;;;;4.70;2.30;;;9.70;85.70;;;;;;5008534;28;20461;-69
2021/07/22 04:57:40;;;;;;;5.70;1.25;;;9.70;85.90;;;;;;5008626;28;20022;-68
2021/07/22 05:00:07;;;;;;;4.30;2.47;;;9.70;86.00;;;;;;5009903;28;20721;-67
2021/07/22 05:03:16;;;;;;;1.83;1.38;;;9.70;86.00;;;;;;5010420;28;20022;-66
2021/07/22 05:06:22;;;;;;;7.10;1.80;;;9.70;86.20;;;;;;5011620;28;20541;-66
2021/07/22 05:09:28;;;;;;;2.10;1.50;;;9.70;86.70;;;;;;5008754;28;20022;-67
2021/07/22 05:12:34;;;;;;;5.10;1.63;;;9.70;86.90;;;;;;5009586;28;20025;-66
2021/07/22 05:15:40;;;;;;;8.17;1.90;;;9.60;87.00;;;;;;5008193;28;20014;-66
2021/07/22 05:18:46;;;;;;;3.50;1.80;;;9.70;86.90;;;;;;5009730;28;20306;-66
2021/07/22 05:21:52;;;;;;;8.97;1.73;;;9.60;86.70;;;;;;5009466;28;20093;-66
2021/07/22 05:24:58;;;;;;;6.33;2.27;;;9.60;86.70;;;;;;5009829;28;20017;-66
2021/07/22 05:28:04;;;;;;;8.63;3.20;;;9.60;86.60;;;;;;5011238;28;20603;-67
2021/07/22 05:31:10;;;;;;;3.67;1.27;;;9.60;86.50;;;;;;5008185;28;20080;-66
2021/07/22 05:34:16;;;;;;;4.30;1.65;;;9.60;86.20;;;;;;5007186;28;20025;-66
2021/07/22 05:37:22;;;;;;;3.47;1.57;;;9.50;86.30;;;;;;5009398;28;20228;-66
2021/07/22 05:40:28;;;;;;;1.63;1.23;;;9.50;86.90;;;;;;5010004;28;20030;-66
2021/07/22 05:43:34;;;;;;;3.40;1.88;;;9.50;86.00;;;;;;5010570;28;20259;-67
2021/07/22 05:46:40;;;;;;;7.43;1.77;;;9.50;86.20;;;;;;5011738;28;20024;-69
2021/07/22 05:49:46;;;;;;;5.37;1.63;;;9.60;86.20;;;;;;5013387;28;20481;-66
2021/07/22 05:52:52;;;;;;;3.60;1.73;;;9.60;86.60;;;;;;5010718;28;20505;-67
2021/07/22 05:55:59;;;;;;;3.60;1.40;;;9.60;87.00;;;;;;5011048;28;20089;-66
2021/07/22 05:59:05;;;;;;;4.60;1.73;;;9.60;87.00;;;;;;5014697;28;20278;-66
2021/07/22 06:01:32;;;;;;;3.87;1.37;;;9.60;87.10;;;;;;5012449;28;20101;-68
2021/07/22 06:04:38;;;;;;;3.47;1.80;;;9.70;87.70;;;;;;5012922;28;20275;-68
2021/07/22 06:07:44;;;;;;;3.33;1.27;;;9.70;87.80;;;;;;5012076;28;20469;-67
2021/07/22 06:10:50;;;;;;;26.55;18.08;;;9.70;87.60;;;;;;5011056;28;20652;-67
2021/07/22 06:13:56;;;;;;;32.90;19.23;;;9.70;87.60;;;;;;5011017;28;20097;-67
2021/07/22 06:17:02;;;;;;;11.67;6.60;;;9.70;87.60;;;;;;5004477;28;20515;-67
2021/07/22 06:19:32;;;;;;;6.33;2.50;;;9.70;87.50;;;;;;5011625;28;20646;-67
2021/07/22 06:21:58;;;;;;;3.72;1.65;;;9.70;87.40;;;;;;5010186;28;20289;-69
2021/07/22 06:24:25;;;;;;;3.95;2.20;;;9.70;86.90;;;;;;5009123;28;20033;-67
2021/07/22 06:26:51;;;;;;;10.65;1.58;;;9.80;86.50;;;;;;5010010;28;20100;-69
2021/07/22 06:29:18;;;;;;;3.17;1.88;;;9.80;86.30;;;;;;5010904;28;20014;-68
2021/07/22 06:31:44;;;;;;;3.72;1.67;;;9.80;86.30;;;;;;5012457;28;20017;-68
2021/07/22 06:34:10;;;;;;;3.75;1.75;;;9.80;86.30;;;;;;5008017;28;20018;-66
2021/07/22 06:36:37;;;;;;;9.85;2.58;;;9.80;86.40;;;;;;5009133;28;20397;-67
2021/07/22 06:39:04;;;;;;;5.32;1.70;;;9.90;86.50;;;;;;5012651;28;20018;-67
2021/07/22 06:41:31;;;;;;;2.75;1.45;;;9.90;86.30;;;;;;5012251;28;20092;-68
2021/07/22 06:43:57;;;;;;;4.38;2.53;;;10.00;86.30;;;;;;5010015;28;20080;-67
2021/07/22 06:46:24;;;;;;;7.60;2.58;;;10.00;86.50;;;;;;5011900;28;20531;-67
2021/07/22 06:48:54;;;;;;;7.93;3.20;;;10.00;86.60;;;;;;5011326;28;20014;-67
2021/07/22 06:51:57;;;;;;;16.40;9.80;;;10.10;86.90;;;;;;5009555;28;20025;-68
2021/07/22 06:54:23;;;;;;;52.70;33.25;;;10.10;87.30;;;;;;5009969;28;20037;-68
2021/07/22 06:56:50;;;;;;;20.38;11.27;;;10.10;87.60;;;;;;5010747;28;20105;-68
2021/07/22 06:59:16;;;;;;;14.27;5.53;;;10.10;87.70;;;;;;5014319;28;20108;-68
2021/07/22 07:01:43;;;;;;;19.92;6.40;;;10.10;88.10;;;;;;5010064;28;20058;-67
2021/07/22 07:04:10;;;;;;;19.15;6.85;;;10.20;88.50;;;;;;5009590;28;20032;-68
2021/07/22 07:06:37;;;;;;;13.35;6.05;;;10.20;88.60;;;;;;5010246;28;20029;-67
2021/07/22 07:09:07;;;;;;;13.50;5.55;;;10.30;88.70;;;;;;5009589;28;20105;-68
2021/07/22 07:11:34;;;;;;;12.27;4.35;;;10.30;88.80;;;;;;5011925;28;20044;-67
2021/07/22 07:14:01;;;;;;;12.02;4.30;;;10.30;88.80;;;;;;5008357;28;20022;-67
2021/07/22 07:17:07;;;;;;;7.85;4.20;;;10.40;89.00;;;;;;5008776;28;20096;-67
2021/07/22 07:20:10;;;;;;;14.00;5.25;;;10.40;89.20;;;;;;5011012;28;20109;-68
2021/07/22 07:22:36;;;;;;;12.93;6.85;;;10.50;89.20;;;;;;5015769;28;20029;-68
2021/07/22 07:25:03;;;;;;;11.48;8.13;;;10.50;88.80;;;;;;5009920;28;20022;-68
2021/07/22 07:27:29;;;;;;;52.88;23.15;;;10.60;89.00;;;;;;5009295;28;20100;-67
2021/07/22 07:29:56;;;;;;;28.40;12.25;;;10.50;89.10;;;;;;5010980;28;20048;-68
2021/07/22 07:32:22;;;;;;;11.90;6.20;;;10.60;89.50;;;;;;5010550;28;20060;-68
2021/07/22 07:34:49;;;;;;;12.05;4.95;;;10.60;89.80;;;;;;5006709;28;20819;-68
2021/07/22 07:37:15;;;;;;;7.97;3.78;;;10.70;89.90;;;;;;5012005;28;20478;-69
2021/07/22 07:39:42;;;;;;;7.03;2.95;;;10.70;89.90;;;;;;5012881;28;20022;-68
2021/07/22 07:42:08;;;;;;;9.23;4.80;;;10.70;89.80;;;;;;5009217;28;20032;-70
2021/07/22 07:44:35;;;;;;;16.83;9.13;;;10.70;89.60;;;;;;5009767;28;20030;-69
2021/07/22 07:47:02;;;;;;;21.20;14.65;;;10.80;89.50;;;;;;5010815;28;20564;-67
2021/07/22 07:49:28;;;;;;;26.83;11.93;;;10.80;89.40;;;;;;5010355;28;20033;-68
2021/07/22 07:51:54;;;;;;;12.52;5.38;;;10.80;89.20;;;;;;5009804;28;20030;-67
2021/07/22 07:54:22;;;;;;;4.78;3.28;;;10.80;88.60;;;;;;5008565;28;20085;-67
2021/07/22 07:56:50;;;;;;;8.10;2.00;;;10.90;88.10;;;;;;5010281;28;20033;-68
2021/07/22 07:59:17;;;;;;;6.93;2.55;;;10.90;87.70;;;;;;5012863;28;20105;-67
2021/07/22 08:01:43;;;;;;;4.43;2.25;;;11.00;87.50;;;;;;5007329;28;20049;-67
2021/07/22 08:04:10;;;;;;;4.63;1.80;;;11.00;87.40;;;;;;5011360;28;20022;-67
2021/07/22 08:06:37;;;;;;;8.10;3.80;;;11.00;86.50;;;;;;5011076;28;20394;-68
2021/07/22 08:09:04;;;;;;;15.35;7.35;;;11.10;86.20;;;;;;5012576;28;20018;-67
2021/07/22 08:11:31;;;;;;;23.98;14.30;;;11.10;85.80;;;;;;5010596;28;20025;-66
2021/07/22 08:14:37;;;;;;;16.40;7.03;;;11.20;85.20;;;;;;5000496;28;20026;-67
2021/07/22 08:17:26;;;;;;;5.65;1.83;;;11.20;84.20;;;;;;5009061;28;20416;-67
2021/07/22 08:19:57;;;;;;;5.43;2.05;;;11.20;83.20;;;;;;5009610;28;20516;-67
2021/07/22 08:22:25;;;;;;;7.13;1.55;;;11.30;83.10;;;;;;5008412;28;20026;-67
2021/07/22 08:24:52;;;;;;;3.78;1.77;;;11.30;83.30;;;;;;4999620;28;20385;-67
2021/07/22 08:27:28;;;;;;;3.63;1.38;;;11.40;83.50;;;;;;5008220;28;20014;-67
2021/07/22 08:29:56;;;;;;;3.53;1.27;;;11.40;83.60;;;;;;5008086;28;20026;-66
2021/07/22 08:32:23;;;;;;;4.75;1.23;;;11.40;83.30;;;;;;5007260;28;20540;-67
2021/07/22 08:34:50;;;;;;;3.95;1.33;;;11.40;82.90;;;;;;5009921;28;20369;-67
2021/07/22 08:37:17;;;;;;;3.75;1.30;;;11.50;82.20;;;;;;5008758;28;20014;-67
2021/07/22 08:39:50;;;;;;;9.00;5.72;;;11.50;81.80;;;;;;5007639;28;20022;-66
2021/07/22 08:42:16;;;;;;;16.35;11.27;;;11.50;81.90;;;;;;5004958;28;20050;-67
2021/07/22 08:44:43;;;;;;;15.15;7.82;;;11.60;82.20;;;;;;5005042;28;20022;-68
2021/07/22 08:47:12;;;;;;;6.53;2.45;;;11.60;82.70;;;;;;5007596;28;20647;-68
2021/07/22 08:49:40;;;;;;;5.45;1.77;;;11.60;82.80;;;;;;5006284;28;20109;-67
2021/07/22 08:52:09;;;;;;;3.25;1.63;;;11.60;82.70;;;;;;5009450;28;20025;-68
2021/07/22 08:54:36;;;;;;;10.52;2.10;;;11.70;82.80;;;;;;5008528;28;20014;-67
2021/07/22 08:57:07;;;;;;;3.17;1.48;;;11.70;83.10;;;;;;5007394;28;20018;-67
2021/07/22 08:59:34;;;;;;;6.40;1.70;;;11.70;83.50;;;;;;5009244;28;20041;-68
2021/07/22 09:02:02;;;;;;;7.68;1.90;;;11.80;83.90;;;;;;5006538;28;20057;-67
2021/07/22 09:04:29;;;;;;;6.53;1.95;;;11.80;83.80;;;;;;5008222;28;20385;-68
2021/07/22 09:06:56;;;;;;;5.15;2.42;;;11.90;83.80;;;;;;5007619;28;20029;-68
2021/07/22 09:09:23;;;;;;;4.65;2.63;;;11.90;83.60;;;;;;5009079;28;20022;-67
2021/07/22 09:11:57;;;;;;;4.90;1.73;;;11.90;83.50;;;;;;5007837;28;20048;-67
2021/07/22 09:14:25;;;;;;;4.38;2.05;;;11.90;83.40;;;;;;5009508;28;20445;-67
2021/07/22 09:16:52;;;;;;;4.05;1.58;;;12.00;83.30;;;;;;5011755;28;20026;-68
2021/07/22 09:19:39;;;;;;;6.93;1.55;;;12.00;82.90;;;;;;5009984;28;20075;-66
2021/07/22 09:22:11;;;;;;;12.15;2.05;;;12.00;82.40;;;;;;5011339;28;20017;-68
2021/07/22 09:24:52;;;;;;;6.10;2.50;;;12.10;82.30;;;;;;5012042;28;20025;-67
2021/07/22 09:27:40;;;;;;;6.70;2.60;;;12.20;82.10;;;;;;5012715;28;20025;-73
2021/07/22 09:30:46;;;;;;;70.10;44.80;;;12.30;82.20;;;;;;5011841;28;20377;-68
2021/07/22 09:33:55;;;;;;;10.63;7.25;;;12.40;81.50;;;;;;5016049;28;20122;-68
2021/07/22 09:36:21;;;;;;;8.38;4.10;;;12.50;80.60;;;;;;5012136;28;20076;-67
2021/07/22 09:39:17;;;;;;;11.82;2.47;;;12.60;79.80;;;;;;5011402;28;20036;-68
2021/07/22 09:42:03;;;;;;;;;;;12.70;79.00;;;;;;5012564;28;20113;-67
2021/07/22 09:44:53;;;;;;;2.90;1.00;;;12.70;78.30;;;;;;5014304;28;19947;-68
2021/07/22 09:47:28;;;;;;;6.78;1.52;;;12.90;77.70;;;;;;5016098;28;20473;-69
2021/07/22 09:50:07;;;;;;;;;;;12.90;77.40;;;;;;5013188;28;20037;-68
2021/07/22 09:52:33;;;;;;;5.07;1.40;;;13.00;77.20;;;;;;5015243;28;19905;-69
2021/07/22 09:55:00;;;;;;;3.53;1.10;;;13.10;75.50;;;;;;5012146;28;20022;-68
2021/07/22 09:57:28;;;;;;;5.20;1.40;;;13.20;74.90;;;;;;5015170;28;20472;-68
2021/07/22 09:59:55;;;;;;;3.08;1.20;;;13.30;74.80;;;;;;5011458;28;20076;-70
2021/07/22 10:02:26;;;;;;;6.32;1.13;;;13.40;75.10;;;;;;5012182;28;20102;-68
2021/07/22 10:05:01;;;;;;;5.75;2.17;;;13.40;74.50;;;;;;5011177;28;20505;-68
2021/07/22 10:07:30;;;;;;;6.35;3.08;;;13.50;73.90;;;;;;5010794;28;20024;-67
2021/07/22 10:10:36;;;;;;;25.10;15.20;;;13.60;73.70;;;;;;5011698;28;20088;-70
2021/07/22 10:13:15;;;;;;;7.38;2.47;;;13.70;74.00;;;;;;5011807;28;20550;-68
2021/07/22 10:15:44;;;;;;;4.00;1.58;;;13.70;72.70;;;;;;5012012;28;20030;-68
2021/07/22 10:18:11;;;;;;;3.92;1.80;;;13.80;71.80;;;;;;5012734;28;20054;-68
2021/07/22 10:20:42;;;;;;;4.95;1.60;;;13.90;71.50;;;;;;5010000;28;20580;-67
2021/07/22 10:23:11;;;;;;;5.47;1.90;;;13.90;71.10;;;;;;5012492;28;20048;-67
2021/07/22 10:25:37;;;;;;;5.03;2.45;;;13.90;70.40;;;;;;5014306;28;20420;-68
2021/07/22 10:28:04;;;;;;;5.53;1.95;;;13.90;70.90;;;;;;5008786;28;20018;-67
2021/07/22 10:30:31;;;;;;;3.60;1.90;;;13.90;69.70;;;;;;5008909;28;20054;-66
2021/07/22 10:33:01;;;;;;;4.00;1.77;;;13.80;69.20;;;;;;5012799;28;20105;-69
2021/07/22 10:35:32;;;;;;;3.50;1.67;;;13.80;69.50;;;;;;5012156;28;20052;-67
2021/07/22 10:38:10;;;;;;;7.10;2.38;;;13.80;69.40;;;;;;5010499;28;20022;-69
2021/07/22 10:40:48;;;;;;;6.00;2.00;;;13.70;69.20;;;;;;5009308;28;20026;-66
2021/07/22 10:43:40;;;;;;;7.95;2.22;;;13.70;69.90;;;;;;5011321;28;20588;-67
2021/07/22 10:46:19;;;;;;;7.10;2.72;;;13.70;70.50;;;;;;5008676;28;20025;-68
2021/07/22 10:48:47;;;;;;;10.13;6.45;;;13.90;69.90;;;;;;5009296;28;20061;-67
2021/07/22 10:51:19;;;;;;;7.43;4.25;;;14.00;69.00;;;;;;5009720;28;20044;-66
2021/07/22 10:53:53;;;;;;;5.57;2.15;;;14.00;67.90;;;;;;5012086;28;20014;-67
2021/07/22 10:56:43;;;;;;;7.07;2.30;;;14.10;67.90;;;;;;5008981;28;20416;-67
2021/07/22 10:59:09;;;;;;;4.30;2.67;;;14.30;68.30;;;;;;5010753;28;20033;-67
2021/07/22 11:01:50;;;;;;;5.22;2.45;;;14.40;66.90;;;;;;5010361;28;20026;-66
2021/07/22 11:04:23;;;;;;;5.90;2.03;;;14.60;66.40;;;;;;5011479;28;20022;-69
2021/07/22 11:07:01;;;;;;;5.03;2.38;;;14.70;66.10;;;;;;5011030;28;20022;-68
2021/07/22 11:09:55;;;;;;;6.80;2.00;;;14.80;65.70;;;;;;5011719;28;20480;-68
2021/07/22 11:12:36;;;;;;;5.63;2.20;;;14.90;65.60;;;;;;5013127;28;20117;-68
2021/07/22 11:15:07;;;;;;;6.47;2.72;;;15.00;64.20;;;;;;5012452;28;20045;-68
2021/07/22 11:17:37;;;;;;;4.53;1.63;;;15.00;64.40;;;;;;5010792;28;20107;-68
2021/07/22 11:20:18;;;;;;;3.63;1.75;;;14.90;64.50;;;;;;5011359;28;20038;-66
2021/07/22 11:22:46;;;;;;;8.55;2.60;;;14.80;65.30;;;;;;5012658;28;20034;-67
2021/07/22 11:25:14;;;;;;;4.93;1.77;;;14.60;64.70;;;;;;5009141;28;20072;-67
2021/07/22 11:27:50;;;;;;;6.30;1.83;;;14.50;64.80;;;;;;5013088;28;20022;-68
2021/07/22 11:30:18;;;;;;;5.63;2.13;;;14.30;65.30;;;;;;5011493;28;20037;-68
2021/07/22 11:32:45;;;;;;;11.15;1.98;;;14.20;66.10;;;;;;5010749;28;20068;-67
2021/07/22 11:35:12;;;;;;;6.70;2.83;;;14.10;67.10;;;;;;5010010;28;20014;-67
2021/07/22 11:37:41;;;;;;;3.60;1.98;;;14.00;67.50;;;;;;5009983;28;20022;-68
2021/07/22 11:40:12;;;;;;;3.20;1.70;;;13.90;67.50;;;;;;5011211;28;20057;-68
2021/07/22 11:42:50;;;;;;;3.80;2.17;;;13.80;67.80;;;;;;5009784;28;20014;-67
2021/07/22 11:45:16;;;;;;;4.78;2.13;;;13.80;67.90;;;;;;5012328;28;20041;-67
2021/07/22 11:47:43;;;;;;;5.45;1.90;;;13.80;67.70;;;;;;5009570;28;20053;-68
2021/07/22 11:50:10;;;;;;;2.60;0.95;;;13.90;66.60;;;;;;5010341;28;20567;-66
2021/07/22 11:52:36;;;;;;;1.85;1.35;;;13.90;65.00;;;;;;5026077;28;20022;-68
2021/07/22 11:55:27;;;;;;;3.15;1.33;;;13.90;64.30;;;;;;5011526;28;20084;-66
2021/07/22 11:57:53;;;;;;;5.30;1.70;;;13.80;64.70;;;;;;5009613;28;20420;-68
2021/07/22 12:00:22;;;;;;;12.95;3.13;;;13.90;64.50;;;;;;5010142;28;20033;-68
2021/07/22 12:02:56;;;;;;;5.95;1.10;;;13.80;64.30;;;;;;5010462;28;20014;-67
2021/07/22 12:05:24;;;;;;;7.32;1.77;;;13.90;64.40;;;;;;5008588;28;20485;-67
2021/07/22 12:07:53;;;;;;;4.22;1.40;;;14.00;64.20;;;;;;5010946;28;20469;-67
2021/07/22 12:10:31;;;;;;;5.25;1.80;;;14.20;64.40;;;;;;5009601;28;20037;-68
2021/07/22 12:13:03;;;;;;;8.18;1.65;;;14.30;64.10;;;;;;5008175;28;20026;-66
2021/07/22 12:15:30;;;;;;;6.20;1.80;;;14.50;64.20;;;;;;5010909;28;20489;-67
2021/07/22 12:17:57;;;;;;;7.43;1.90;;;14.60;63.70;;;;;;5009121;28;20055;-68
2021/07/22 12:20:24;;;;;;;3.47;1.10;;;14.70;63.20;;;;;;5011524;28;20026;-67
2021/07/22 12:22:50;;;;;;;2.50;1.15;;;14.80;63.40;;;;;;5011370;28;20018;-69
2021/07/22 12:25:18;;;;;;;5.75;1.60;;;14.80;63.00;;;;;;5010795;28;20358;-69
2021/07/22 12:27:52;;;;;;;5.55;1.00;;;15.00;62.90;;;;;;5012252;28;20096;-67
2021/07/22 12:30:32;;;;;;;6.20;1.98;;;15.10;62.50;;;;;;5009376;28;20029;-67
2021/07/22 12:33:01;;;;;;;9.98;2.58;;;15.00;61.40;;;;;;5009980;28;20048;-67
2021/07/22 12:35:42;;;;;;;4.40;1.23;;;15.00;61.40;;;;;;5010912;28;20026;-67
2021/07/22 12:38:09;;;;;;;4.47;1.30;;;14.90;60.60;;;;;;5011339;28;20120;-67
2021/07/22 12:40:40;;;;;;;2.28;0.82;;;14.80;60.70;;;;;;5010685;28;20029;-67
2021/07/22 12:43:09;;;;;;;5.03;1.67;;;14.70;61.00;;;;;;5010526;28;20057;-67
2021/07/22 12:45:36;;;;;;;4.57;2.13;;;14.60;61.90;;;;;;5010938;28;20913;-68
2021/07/22 12:48:03;;;;;;;3.75;1.23;;;14.50;62.10;;;;;;5007119;28;20072;-68
2021/07/22 12:50:35;;;;;;;6.72;1.58;;;14.50;62.30;;;;;;5012058;28;20065;-69
2021/07/22 12:53:04;;;;;;;8.40;1.98;;;14.50;62.60;;;;;;5014916;28;20389;-67
2021/07/22 12:55:32;;;;;;;4.05;0.93;;;14.50;62.70;;;;;;5013815;28;20502;-68
2021/07/22 12:57:59;;;;;;;3.75;1.15;;;14.60;61.10;;;;;;5014783;28;20489;-67
2021/07/22 13:00:25;;;;;;;10.40;2.72;;;14.60;60.80;;;;;;5016549;28;20022;-68
2021/07/22 13:03:02;;;;;;;3.00;1.40;;;14.70;61.50;;;;;;5017038;28;20018;-66
2021/07/22 13:06:08;;;;;;;5.18;1.15;;;14.80;60.80;;;;;;5012760;28;20504;-67
2021/07/22 13:09:14;;;;;;;2.65;1.92;;;14.90;59.50;;;;;;5013348;28;20028;-68
2021/07/22 13:11:40;;;;;;;3.40;0.95;;;15.00;59.30;;;;;;5013433;28;20034;-67
2021/07/22 13:14:07;;;;;;;3.33;1.20;;;15.10;58.80;;;;;;5013507;28;20018;-67
2021/07/22 13:16:33;;;;;;;6.00;1.10;;;15.10;58.50;;;;;;5014607;28;20025;-67
2021/07/22 13:18:59;;;;;;;7.25;1.40;;;15.20;58.30;;;;;;5014664;28;20041;-67
2021/07/22 13:21:27;;;;;;;3.25;1.08;;;15.30;58.60;;;;;;5012702;28;21139;-69
2021/07/22 13:23:53;;;;;;;6.97;1.88;;;15.30;58.30;;;;;;5012282;28;20493;-68
2021/07/22 13:26:20;;;;;;;5.40;1.05;;;15.40;57.80;;;;;;5014814;28;20088;-68
2021/07/22 13:28:49;;;;;;;3.92;1.00;;;15.40;57.90;;;;;;5015842;28;20512;-68
2021/07/22 13:31:15;;;;;;;4.50;1.52;;;15.40;57.20;;;;;;5012924;28;20535;-67